sensor_id;sensor_type;location;lat;lon;timestamp;pressure;altitude;pressure_sealevel;temperature;humidity
59194;BME280;44967;48.598;15.650;2023-05-16T00:02:17;97810.09;;;9.58;83.44
59194;BME280;44967;48.598;15.650;2023-05-16T00:04:43;97809.28;;;9.56;82.84
59194;BME280;44967;48.598;15.650;2023-05-16T00:07:09;97816.25;;;9.59;83.24
59194;BME280;44967;48.598;15.650;2023-05-16T00:09:35;97816.19;;;9.60;82.57
59194;BME280;44967;48.598;15.650;2023-05-16T00:12:01;97815.84;;;9.44;82.63
59194;BME280;44967;48.598;15.650;2023-05-16T00:14:27;97807.66;;;9.27;83.41
59194;BME280;44967;48.598;15.650;2023-05-16T00:16:53;97804.19;;;9.25;83.42
59194;BME280;44967;48.598;15.650;2023-05-16T00:19:19;97809.31;;;9.30;83.73
59194;BME280;44967;48.598;15.650;2023-05-16T00:21:45;97818.88;;;9.32;83.48
59194;BME280;44967;48.598;15.650;2023-05-16T00:24:10;97820.56;;;9.35;83.31
59194;BME280;44967;48.598;15.650;2023-05-16T00:26:37;97815.34;;;9.33;84.28
59194;BME280;44967;48.598;15.650;2023-05-16T00:29:02;97817.25;;;9.28;83.59
59194;BME280;44967;48.598;15.650;2023-05-16T00:31:28;97798.22;;;9.20;83.12
59194;BME280;44967;48.598;15.650;2023-05-16T00:33:53;97797.44;;;9.17;83.29
59194;BME280;44967;48.598;15.650;2023-05-16T00:36:19;97786.97;;;9.15;83.46
59194;BME280;44967;48.598;15.650;2023-05-16T00:38:46;97793.97;;;9.16;83.82
59194;BME280;44967;48.598;15.650;2023-05-16T00:41:12;97797.38;;;9.20;84.25
59194;BME280;44967;48.598;15.650;2023-05-16T00:43:37;97796.50;;;9.19;83.68
59194;BME280;44967;48.598;15.650;2023-05-16T00:46:04;97799.84;;;9.24;84.02
59194;BME280;44967;48.598;15.650;2023-05-16T00:48:30;97802.31;;;9.29;83.23
59194;BME280;44967;48.598;15.650;2023-05-16T00:50:57;97793.72;;;9.24;82.84
59194;BME280;44967;48.598;15.650;2023-05-16T00:53:23;97786.56;;;9.27;82.83
59194;BME280;44967;48.598;15.650;2023-05-16T00:55:50;97783.81;;;9.30;83.23
59194;BME280;44967;48.598;15.650;2023-05-16T00:58:17;97782.97;;;9.28;83.06
59194;BME280;44967;48.598;15.650;2023-05-16T01:00:43;97783.09;;;9.25;83.04
59194;BME280;44967;48.598;15.650;2023-05-16T01:03:10;97771.75;;;9.23;83.05
59194;BME280;44967;48.598;15.650;2023-05-16T01:05:36;97770.06;;;9.21;83.26
59194;BME280;44967;48.598;15.650;2023-05-16T01:08:01;97783.16;;;9.24;82.51
59194;BME280;44967;48.598;15.650;2023-05-16T01:10:34;97778.06;;;9.18;82.98
59194;BME280;44967;48.598;15.650;2023-05-16T01:13:11;97777.56;;;9.07;82.07
59194;BME280;44967;48.598;15.650;2023-05-16T01:16:01;97769.91;;;8.99;83.05
59194;BME280;44967;48.598;15.650;2023-05-16T01:18:51;97766.47;;;8.97;83.56
59194;BME280;44967;48.598;15.650;2023-05-16T01:21:48;97778.19;;;8.88;82.89
59194;BME280;44967;48.598;15.650;2023-05-16T01:24:33;97779.13;;;8.86;83.11
59194;BME280;44967;48.598;15.650;2023-05-16T01:27:03;97777.59;;;8.79;84.02
59194;BME280;44967;48.598;15.650;2023-05-16T01:29:30;97790.75;;;8.80;84.16
59194;BME280;44967;48.598;15.650;2023-05-16T01:31:56;97791.50;;;8.84;83.84
59194;BME280;44967;48.598;15.650;2023-05-16T01:34:22;97778.44;;;8.81;83.30
59194;BME280;44967;48.598;15.650;2023-05-16T01:42:07;97782.75;;;8.82;83.51
59194;BME280;44967;48.598;15.650;2023-05-16T01:47:35;97771.38;;;8.81;83.85
59194;BME280;44967;48.598;15.650;2023-05-16T01:50:09;97770.81;;;8.72;83.12
59194;BME280;44967;48.598;15.650;2023-05-16T01:55:23;97768.69;;;8.83;83.76
59194;BME280;44967;48.598;15.650;2023-05-16T01:57:54;97768.59;;;8.86;84.17
59194;BME280;44967;48.598;15.650;2023-05-16T02:00:20;97769.09;;;8.97;83.78
59194;BME280;44967;48.598;15.650;2023-05-16T02:02:47;97763.31;;;8.86;83.34
59194;BME280;44967;48.598;15.650;2023-05-16T02:05:12;97768.69;;;8.83;83.33
59194;BME280;44967;48.598;15.650;2023-05-16T02:07:38;97779.09;;;8.87;83.68
59194;BME280;44967;48.598;15.650;2023-05-16T02:10:04;97775.47;;;8.90;84.07
59194;BME280;44967;48.598;15.650;2023-05-16T02:12:30;97769.31;;;8.91;83.24
59194;BME280;44967;48.598;15.650;2023-05-16T02:14:55;97771.19;;;8.87;83.51
59194;BME280;44967;48.598;15.650;2023-05-16T02:17:21;97770.03;;;8.96;83.33
59194;BME280;44967;48.598;15.650;2023-05-16T02:19:46;97771.84;;;8.94;83.78
59194;BME280;44967;48.598;15.650;2023-05-16T02:22:12;97770.94;;;8.95;83.74
59194;BME280;44967;48.598;15.650;2023-05-16T02:24:38;97785.13;;;8.91;83.86
59194;BME280;44967;48.598;15.650;2023-05-16T02:27:04;97780.75;;;8.90;83.96
59194;BME280;44967;48.598;15.650;2023-05-16T02:29:30;97782.59;;;8.88;83.13
59194;BME280;44967;48.598;15.650;2023-05-16T02:31:56;97779.88;;;8.89;83.44
59194;BME280;44967;48.598;15.650;2023-05-16T02:34:21;97782.59;;;8.88;83.83
59194;BME280;44967;48.598;15.650;2023-05-16T02:36:47;97772.66;;;8.96;84.04
59194;BME280;44967;48.598;15.650;2023-05-16T02:39:13;97775.19;;;8.99;83.63
59194;BME280;44967;48.598;15.650;2023-05-16T02:41:38;97782.53;;;8.89;82.78
59194;BME280;44967;48.598;15.650;2023-05-16T02:44:04;97774.75;;;8.85;83.43
59194;BME280;44967;48.598;15.650;2023-05-16T02:46:32;97775.59;;;8.87;83.68
59194;BME280;44967;48.598;15.650;2023-05-16T02:48:59;97783.25;;;8.94;84.17
59194;BME280;44967;48.598;15.650;2023-05-16T02:51:26;97786.72;;;8.96;84.15
59194;BME280;44967;48.598;15.650;2023-05-16T02:53:53;97781.59;;;8.92;83.37
59194;BME280;44967;48.598;15.650;2023-05-16T02:56:21;97780.66;;;8.93;83.68
59194;BME280;44967;48.598;15.650;2023-05-16T02:58:48;97779.94;;;8.88;83.77
59194;BME280;44967;48.598;15.650;2023-05-16T03:01:15;97780.88;;;8.85;83.51
59194;BME280;44967;48.598;15.650;2023-05-16T03:03:41;97781.25;;;8.75;83.48
59194;BME280;44967;48.598;15.650;2023-05-16T03:06:06;97775.72;;;8.82;83.90
59194;BME280;44967;48.598;15.650;2023-05-16T03:08:32;97768.69;;;8.83;83.91
59194;BME280;44967;48.598;15.650;2023-05-16T03:10:59;97775.88;;;8.78;83.57
59194;BME280;44967;48.598;15.650;2023-05-16T03:13:25;97762.84;;;8.73;83.72
59194;BME280;44967;48.598;15.650;2023-05-16T03:15:51;97767.16;;;8.76;83.97
59194;BME280;44967;48.598;15.650;2023-05-16T03:18:17;97772.22;;;8.82;83.96
59194;BME280;44967;48.598;15.650;2023-05-16T03:20:43;97769.69;;;8.79;84.10
59194;BME280;44967;48.598;15.650;2023-05-16T03:23:08;97765.34;;;8.78;84.60
59194;BME280;44967;48.598;15.650;2023-05-16T03:25:34;97766.25;;;8.77;84.92
59194;BME280;44967;48.598;15.650;2023-05-16T03:28:01;97764.47;;;8.77;84.02
59194;BME280;44967;48.598;15.650;2023-05-16T03:30:27;97764.41;;;8.80;84.29
59194;BME280;44967;48.598;15.650;2023-05-16T03:32:54;97776.59;;;8.83;84.37
59194;BME280;44967;48.598;15.650;2023-05-16T03:35:20;97768.78;;;8.80;83.75
59194;BME280;44967;48.598;15.650;2023-05-16T03:37:45;97767.06;;;8.79;84.50
59194;BME280;44967;48.598;15.650;2023-05-16T03:40:11;97764.22;;;8.85;84.33
59194;BME280;44967;48.598;15.650;2023-05-16T03:42:37;97749.44;;;8.81;84.28
59194;BME280;44967;48.598;15.650;2023-05-16T03:45:06;97748.47;;;8.83;83.96
59194;BME280;44967;48.598;15.650;2023-05-16T03:47:32;97748.38;;;8.86;84.28
59194;BME280;44967;48.598;15.650;2023-05-16T03:49:58;97753.59;;;8.88;84.35
59194;BME280;44967;48.598;15.650;2023-05-16T03:52:24;97749.38;;;8.82;85.15
59194;BME280;44967;48.598;15.650;2023-05-16T03:54:49;97760.13;;;9.03;84.89
59194;BME280;44967;48.598;15.650;2023-05-16T03:57:15;97746.97;;;9.03;84.63
59194;BME280;44967;48.598;15.650;2023-05-16T03:59:41;97746.25;;;8.97;84.48
59194;BME280;44967;48.598;15.650;2023-05-16T04:02:07;97746.94;;;9.04;84.43
59194;BME280;44967;48.598;15.650;2023-05-16T04:04:33;97746.81;;;9.07;84.40
59194;BME280;44967;48.598;15.650;2023-05-16T04:07:00;97743.19;;;9.10;84.74
59194;BME280;44967;48.598;15.650;2023-05-16T04:09:26;97738.69;;;9.13;84.17
59194;BME280;44967;48.598;15.650;2023-05-16T04:11:51;97755.94;;;9.23;84.22
59194;BME280;44967;48.598;15.650;2023-05-16T04:14:17;97752.53;;;9.20;83.95
59194;BME280;44967;48.598;15.650;2023-05-16T04:16:43;97753.22;;;9.25;84.21
59194;BME280;44967;48.598;15.650;2023-05-16T04:19:08;97744.22;;;9.32;84.33
59194;BME280;44967;48.598;15.650;2023-05-16T04:21:36;97742.22;;;9.38;83.77
59194;BME280;44967;48.598;15.650;2023-05-16T04:24:06;97733.28;;;9.42;83.84
59194;BME280;44967;48.598;15.650;2023-05-16T04:26:32;97735.22;;;9.37;83.59
59194;BME280;44967;48.598;15.650;2023-05-16T04:28:58;97721.25;;;9.35;83.90
59194;BME280;44967;48.598;15.650;2023-05-16T04:31:24;97708.84;;;9.37;84.29
59194;BME280;44967;48.598;15.650;2023-05-16T04:33:51;97712.19;;;9.42;84.91
59194;BME280;44967;48.598;15.650;2023-05-16T04:36:17;97711.81;;;9.53;84.04
59194;BME280;44967;48.598;15.650;2023-05-16T04:38:43;97723.38;;;9.49;84.18
59194;BME280;44967;48.598;15.650;2023-05-16T04:41:08;97737.97;;;9.59;84.21
59194;BME280;44967;48.598;15.650;2023-05-16T04:43:34;97744.06;;;9.61;83.62
59194;BME280;44967;48.598;15.650;2023-05-16T04:46:00;97757.81;;;9.44;83.63
59194;BME280;44967;48.598;15.650;2023-05-16T04:48:25;97767.94;;;9.57;83.69
59194;BME280;44967;48.598;15.650;2023-05-16T04:50:52;97761.66;;;9.61;83.25
59194;BME280;44967;48.598;15.650;2023-05-16T04:53:17;97769.00;;;9.76;83.86
59194;BME280;44967;48.598;15.650;2023-05-16T04:55:43;97779.38;;;9.82;83.13
59194;BME280;44967;48.598;15.650;2023-05-16T04:58:09;97792.41;;;9.86;83.25
59194;BME280;44967;48.598;15.650;2023-05-16T05:00:34;97793.63;;;10.01;83.37
59194;BME280;44967;48.598;15.650;2023-05-16T05:03:00;97799.97;;;10.20;83.14
59194;BME280;44967;48.598;15.650;2023-05-16T05:05:26;97810.22;;;10.29;82.71
59194;BME280;44967;48.598;15.650;2023-05-16T05:07:51;97814.31;;;10.38;81.99
59194;BME280;44967;48.598;15.650;2023-05-16T05:10:21;97807.53;;;10.54;81.67
59194;BME280;44967;48.598;15.650;2023-05-16T05:12:46;97814.63;;;10.52;82.11
59194;BME280;44967;48.598;15.650;2023-05-16T05:15:12;97809.00;;;10.61;81.99
59194;BME280;44967;48.598;15.650;2023-05-16T05:17:38;97806.97;;;10.68;82.49
59194;BME280;44967;48.598;15.650;2023-05-16T05:20:04;97809.41;;;10.74;82.17
59194;BME280;44967;48.598;15.650;2023-05-16T05:22:33;97800.22;;;10.82;82.27
59194;BME280;44967;48.598;15.650;2023-05-16T05:24:59;97804.25;;;10.93;82.17
59194;BME280;44967;48.598;15.650;2023-05-16T05:27:25;97802.81;;;10.84;82.20
59194;BME280;44967;48.598;15.650;2023-05-16T05:29:51;97799.00;;;10.91;81.92
59194;BME280;44967;48.598;15.650;2023-05-16T05:32:17;97795.50;;;10.91;81.98
59194;BME280;44967;48.598;15.650;2023-05-16T05:34:42;97788.19;;;10.97;81.34
59194;BME280;44967;48.598;15.650;2023-05-16T05:37:08;97782.59;;;11.05;82.04
59194;BME280;44967;48.598;15.650;2023-05-16T05:39:34;97784.81;;;11.15;81.84
59194;BME280;44967;48.598;15.650;2023-05-16T05:42:00;97775.44;;;11.28;81.23
59194;BME280;44967;48.598;15.650;2023-05-16T05:44:29;97771.03;;;11.29;81.17
59194;BME280;44967;48.598;15.650;2023-05-16T05:46:55;97771.63;;;11.35;81.34
59194;BME280;44967;48.598;15.650;2023-05-16T05:49:23;97765.13;;;11.43;81.28
59194;BME280;44967;48.598;15.650;2023-05-16T05:51:49;97767.13;;;11.58;80.81
59194;BME280;44967;48.598;15.650;2023-05-16T05:54:18;97766.22;;;11.59;80.91
59194;BME280;44967;48.598;15.650;2023-05-16T05:56:44;97775.41;;;11.70;81.26
59194;BME280;44967;48.598;15.650;2023-05-16T05:59:10;97774.19;;;11.79;80.31
59194;BME280;44967;48.598;15.650;2023-05-16T06:01:37;97770.13;;;11.91;80.32
59194;BME280;44967;48.598;15.650;2023-05-16T06:04:03;97771.56;;;11.98;78.90
59194;BME280;44967;48.598;15.650;2023-05-16T06:06:29;97777.34;;;12.07;78.45
59194;BME280;44967;48.598;15.650;2023-05-16T06:08:56;97786.66;;;12.16;77.69
59194;BME280;44967;48.598;15.650;2023-05-16T06:11:22;97781.47;;;12.13;77.44
59194;BME280;44967;48.598;15.650;2023-05-16T06:13:50;97774.81;;;12.24;77.18
59194;BME280;44967;48.598;15.650;2023-05-16T06:16:16;97777.31;;;12.27;76.68
59194;BME280;44967;48.598;15.650;2023-05-16T06:18:42;97793.56;;;12.39;76.69
59194;BME280;44967;48.598;15.650;2023-05-16T06:21:08;97781.69;;;12.47;77.01
59194;BME280;44967;48.598;15.650;2023-05-16T06:23:33;97782.69;;;12.63;77.18
59194;BME280;44967;48.598;15.650;2023-05-16T06:26:03;97786.09;;;12.84;76.06
59194;BME280;44967;48.598;15.650;2023-05-16T06:28:28;97780.97;;;12.81;76.49
59194;BME280;44967;48.598;15.650;2023-05-16T06:30:54;97779.81;;;12.87;76.59
59194;BME280;44967;48.598;15.650;2023-05-16T06:33:20;97784.81;;;12.93;76.24
59194;BME280;44967;48.598;15.650;2023-05-16T06:35:46;97783.25;;;13.07;76.73
59194;BME280;44967;48.598;15.650;2023-05-16T06:38:13;97781.66;;;13.22;75.98
59194;BME280;44967;48.598;15.650;2023-05-16T06:40:39;97780.34;;;13.31;75.38
59194;BME280;44967;48.598;15.650;2023-05-16T06:43:05;97785.34;;;13.37;75.48
59194;BME280;44967;48.598;15.650;2023-05-16T06:45:31;97780.97;;;13.53;74.35
59194;BME280;44967;48.598;15.650;2023-05-16T06:47:56;97781.38;;;13.62;72.70
59194;BME280;44967;48.598;15.650;2023-05-16T06:50:22;97783.66;;;13.70;73.60
59194;BME280;44967;48.598;15.650;2023-05-16T06:52:51;97788.47;;;13.96;71.59
59194;BME280;44967;48.598;15.650;2023-05-16T06:55:16;97786.09;;;14.07;71.62
59194;BME280;44967;48.598;15.650;2023-05-16T06:57:42;97779.50;;;14.14;71.50
59194;BME280;44967;48.598;15.650;2023-05-16T07:00:08;97784.19;;;14.27;70.90
59194;BME280;44967;48.598;15.650;2023-05-16T07:02:34;97790.44;;;14.43;70.04
59194;BME280;44967;48.598;15.650;2023-05-16T07:04:59;97789.44;;;14.61;70.16
59194;BME280;44967;48.598;15.650;2023-05-16T07:07:25;97798.31;;;14.77;70.08
59194;BME280;44967;48.598;15.650;2023-05-16T07:09:51;97795.38;;;14.82;70.65
59194;BME280;44967;48.598;15.650;2023-05-16T07:12:16;97798.75;;;14.85;70.42
59194;BME280;44967;48.598;15.650;2023-05-16T07:14:42;97796.25;;;14.98;70.19
59194;BME280;44967;48.598;15.650;2023-05-16T07:17:08;97798.22;;;15.10;69.22
59194;BME280;44967;48.598;15.650;2023-05-16T07:19:34;97793.41;;;15.17;68.69
59194;BME280;44967;48.598;15.650;2023-05-16T07:22:00;97798.13;;;15.12;68.12
59194;BME280;44967;48.598;15.650;2023-05-16T07:24:25;97794.25;;;15.48;67.65
59194;BME280;44967;48.598;15.650;2023-05-16T07:26:51;97807.81;;;15.60;67.27
59194;BME280;44967;48.598;15.650;2023-05-16T07:29:16;97798.66;;;15.79;66.16
59194;BME280;44967;48.598;15.650;2023-05-16T07:31:42;97806.56;;;15.65;65.77
59194;BME280;44967;48.598;15.650;2023-05-16T07:34:09;97811.56;;;15.71;64.77
59194;BME280;44967;48.598;15.650;2023-05-16T07:36:35;97803.00;;;15.50;65.52
59194;BME280;44967;48.598;15.650;2023-05-16T07:39:01;97805.41;;;15.55;65.76
59194;BME280;44967;48.598;15.650;2023-05-16T07:41:29;97816.06;;;15.55;65.63
59194;BME280;44967;48.598;15.650;2023-05-16T07:43:54;97816.75;;;15.59;65.20
59194;BME280;44967;48.598;15.650;2023-05-16T07:46:20;97813.81;;;15.47;64.64
59194;BME280;44967;48.598;15.650;2023-05-16T07:48:46;97811.75;;;15.37;64.18
59194;BME280;44967;48.598;15.650;2023-05-16T07:51:11;97812.88;;;15.33;65.09
59194;BME280;44967;48.598;15.650;2023-05-16T07:53:37;97817.06;;;15.37;65.49
59194;BME280;44967;48.598;15.650;2023-05-16T07:56:03;97816.06;;;15.24;64.76
59194;BME280;44967;48.598;15.650;2023-05-16T07:58:29;97826.19;;;15.33;65.14
59194;BME280;44967;48.598;15.650;2023-05-16T08:00:55;97825.41;;;15.46;65.49
59194;BME280;44967;48.598;15.650;2023-05-16T08:03:20;97828.06;;;15.46;64.87
59194;BME280;44967;48.598;15.650;2023-05-16T08:05:47;97828.31;;;15.42;64.19
59194;BME280;44967;48.598;15.650;2023-05-16T08:08:13;97829.00;;;15.45;63.51
59194;BME280;44967;48.598;15.650;2023-05-16T08:10:42;97835.19;;;15.46;63.87
59194;BME280;44967;48.598;15.650;2023-05-16T08:13:07;97837.38;;;15.55;64.96
59194;BME280;44967;48.598;15.650;2023-05-16T08:15:34;97840.03;;;15.55;65.14
59194;BME280;44967;48.598;15.650;2023-05-16T08:18:00;97837.19;;;15.58;64.99
59194;BME280;44967;48.598;15.650;2023-05-16T08:20:26;97831.34;;;15.67;64.39
59194;BME280;44967;48.598;15.650;2023-05-16T08:22:51;97846.59;;;15.79;64.35
59194;BME280;44967;48.598;15.650;2023-05-16T08:25:17;97855.19;;;15.69;64.88
59194;BME280;44967;48.598;15.650;2023-05-16T08:27:44;97849.03;;;15.68;64.28
59194;BME280;44967;48.598;15.650;2023-05-16T08:30:10;97850.41;;;15.75;63.81
59194;BME280;44967;48.598;15.650;2023-05-16T08:32:37;97852.09;;;15.76;63.74
59194;BME280;44967;48.598;15.650;2023-05-16T08:35:03;97854.59;;;15.79;64.00
59194;BME280;44967;48.598;15.650;2023-05-16T08:37:29;97855.56;;;15.63;63.95
59194;BME280;44967;48.598;15.650;2023-05-16T08:39:54;97859.44;;;15.57;63.28
59194;BME280;44967;48.598;15.650;2023-05-16T08:42:20;97863.00;;;15.87;63.58
59194;BME280;44967;48.598;15.650;2023-05-16T08:44:46;97855.47;;;15.80;64.29
59194;BME280;44967;48.598;15.650;2023-05-16T08:47:16;97863.53;;;15.78;63.89
59194;BME280;44967;48.598;15.650;2023-05-16T08:49:42;97866.78;;;15.83;63.90
59194;BME280;44967;48.598;15.650;2023-05-16T08:52:12;97866.75;;;15.99;64.08
59194;BME280;44967;48.598;15.650;2023-05-16T08:54:38;97869.44;;;16.13;63.41
59194;BME280;44967;48.598;15.650;2023-05-16T08:57:05;97874.59;;;16.16;62.79
59194;BME280;44967;48.598;15.650;2023-05-16T08:59:32;97867.66;;;16.14;63.40
59194;BME280;44967;48.598;15.650;2023-05-16T09:01:58;97859.50;;;16.01;62.24
59194;BME280;44967;48.598;15.650;2023-05-16T09:04:24;97863.13;;;16.00;61.65
59194;BME280;44967;48.598;15.650;2023-05-16T09:06:51;97856.63;;;15.90;63.16
59194;BME280;44967;48.598;15.650;2023-05-16T09:09:19;97861.31;;;16.00;62.66
59194;BME280;44967;48.598;15.650;2023-05-16T09:11:44;97862.22;;;15.85;64.01
59194;BME280;44967;48.598;15.650;2023-05-16T09:14:10;97855.31;;;15.97;63.59
59194;BME280;44967;48.598;15.650;2023-05-16T09:16:36;97849.00;;;15.84;62.78
59194;BME280;44967;48.598;15.650;2023-05-16T09:19:01;97847.91;;;15.72;62.67
59194;BME280;44967;48.598;15.650;2023-05-16T09:21:30;97839.38;;;15.81;62.58
59194;BME280;44967;48.598;15.650;2023-05-16T09:24:03;97830.47;;;15.67;63.28
59194;BME280;44967;48.598;15.650;2023-05-16T09:26:29;97825.47;;;15.61;63.78
59194;BME280;44967;48.598;15.650;2023-05-16T09:28:56;97829.59;;;15.66;64.13
59194;BME280;44967;48.598;15.650;2023-05-16T09:31:23;97829.97;;;15.60;64.94
59194;BME280;44967;48.598;15.650;2023-05-16T09:33:52;97820.53;;;15.54;65.04
59194;BME280;44967;48.598;15.650;2023-05-16T09:36:18;97813.41;;;15.55;64.40
59194;BME280;44967;48.598;15.650;2023-05-16T09:38:44;97813.59;;;15.52;64.28
59194;BME280;44967;48.598;15.650;2023-05-16T09:41:10;97804.63;;;15.53;64.42
59194;BME280;44967;48.598;15.650;2023-05-16T09:43:40;97802.38;;;15.61;65.08
59194;BME280;44967;48.598;15.650;2023-05-16T09:46:11;97791.72;;;15.61;65.45
59194;BME280;44967;48.598;15.650;2023-05-16T09:48:40;97792.66;;;15.76;65.60
59194;BME280;44967;48.598;15.650;2023-05-16T09:51:07;97783.47;;;15.95;65.36
59194;BME280;44967;48.598;15.650;2023-05-16T09:53:32;97777.00;;;15.99;65.24
59194;BME280;44967;48.598;15.650;2023-05-16T09:56:03;97768.59;;;15.91;65.31
59194;BME280;44967;48.598;15.650;2023-05-16T09:58:34;97762.50;;;15.89;65.89
59194;BME280;44967;48.598;15.650;2023-05-16T10:01:01;97753.69;;;16.03;65.79
59194;BME280;44967;48.598;15.650;2023-05-16T10:03:28;97744.53;;;16.21;64.55
59194;BME280;44967;48.598;15.650;2023-05-16T10:05:54;97757.97;;;16.20;64.72
59194;BME280;44967;48.598;15.650;2023-05-16T10:08:25;97760.56;;;16.35;64.05
59194;BME280;44967;48.598;15.650;2023-05-16T10:10:52;97760.19;;;16.27;64.83
59194;BME280;44967;48.598;15.650;2023-05-16T10:13:23;97747.13;;;16.23;65.13
59194;BME280;44967;48.598;15.650;2023-05-16T10:15:52;97735.28;;;16.13;64.71
59194;BME280;44967;48.598;15.650;2023-05-16T10:18:20;97721.69;;;16.03;63.95
59194;BME280;44967;48.598;15.650;2023-05-16T10:20:48;97741.03;;;16.07;64.75
59194;BME280;44967;48.598;15.650;2023-05-16T10:23:20;97750.75;;;16.08;64.14
59194;BME280;44967;48.598;15.650;2023-05-16T10:25:47;97753.84;;;16.00;64.25
59194;BME280;44967;48.598;15.650;2023-05-16T10:28:15;97750.13;;;15.88;64.88
59194;BME280;44967;48.598;15.650;2023-05-16T10:30:43;97764.16;;;15.76;64.86
59194;BME280;44967;48.598;15.650;2023-05-16T10:33:14;97766.09;;;15.74;64.30
59194;BME280;44967;48.598;15.650;2023-05-16T10:35:40;97781.66;;;15.66;65.43
59194;BME280;44967;48.598;15.650;2023-05-16T10:38:07;97786.41;;;15.61;65.06
59194;BME280;44967;48.598;15.650;2023-05-16T10:40:34;97801.81;;;15.40;65.40
59194;BME280;44967;48.598;15.650;2023-05-16T10:43:02;97816.91;;;15.40;65.93
59194;BME280;44967;48.598;15.650;2023-05-16T10:45:28;97819.91;;;15.34;65.89
59194;BME280;44967;48.598;15.650;2023-05-16T10:47:59;97831.50;;;15.17;67.89
59194;BME280;44967;48.598;15.650;2023-05-16T10:50:44;97842.94;;;15.03;70.05
59194;BME280;44967;48.598;15.650;2023-05-16T10:53:19;97853.84;;;14.99;70.94
59194;BME280;44967;48.598;15.650;2023-05-16T10:58:21;97858.34;;;14.66;72.59
59194;BME280;44967;48.598;15.650;2023-05-16T11:00:47;97871.19;;;14.57;73.23
59194;BME280;44967;48.598;15.650;2023-05-16T11:03:23;97873.63;;;14.45;73.93
59194;BME280;44967;48.598;15.650;2023-05-16T11:05:52;97868.31;;;14.45;74.58
59194;BME280;44967;48.598;15.650;2023-05-16T11:08:18;97871.38;;;14.37;75.09
59194;BME280;44967;48.598;15.650;2023-05-16T11:10:44;97866.94;;;14.38;76.10
59194;BME280;44967;48.598;15.650;2023-05-16T11:13:09;97874.41;;;14.30;76.67
59194;BME280;44967;48.598;15.650;2023-05-16T11:15:35;97877.00;;;14.14;78.25
59194;BME280;44967;48.598;15.650;2023-05-16T11:18:09;97872.06;;;14.06;78.39
59194;BME280;44967;48.598;15.650;2023-05-16T11:20:39;97872.38;;;14.00;77.72
59194;BME280;44967;48.598;15.650;2023-05-16T11:25:42;97879.41;;;13.84;80.13
59194;BME280;44967;48.598;15.650;2023-05-16T11:28:11;97872.03;;;13.72;80.97
59194;BME280;44967;48.598;15.650;2023-05-16T11:30:47;97868.25;;;13.59;82.45
59194;BME280;44967;48.598;15.650;2023-05-16T11:33:16;97878.78;;;13.43;83.37
59194;BME280;44967;48.598;15.650;2023-05-16T11:35:42;97879.84;;;13.39;82.50
59194;BME280;44967;48.598;15.650;2023-05-16T11:38:14;97877.03;;;13.25;83.45
59194;BME280;44967;48.598;15.650;2023-05-16T11:40:43;97867.69;;;13.35;84.15
59194;BME280;44967;48.598;15.650;2023-05-16T11:43:09;97870.81;;;13.43;83.57
59194;BME280;44967;48.598;15.650;2023-05-16T11:45:36;97880.47;;;13.27;83.89
59194;BME280;44967;48.598;15.650;2023-05-16T11:48:02;97879.41;;;13.31;83.16
59194;BME280;44967;48.598;15.650;2023-05-16T11:50:28;97875.28;;;13.24;84.31
59194;BME280;44967;48.598;15.650;2023-05-16T11:52:55;97877.28;;;13.38;84.27
59194;BME280;44967;48.598;15.650;2023-05-16T11:55:28;97858.72;;;13.38;83.91
59194;BME280;44967;48.598;15.650;2023-05-16T11:57:57;97858.06;;;13.33;84.82
59194;BME280;44967;48.598;15.650;2023-05-16T12:00:25;97857.31;;;13.31;84.86
59194;BME280;44967;48.598;15.650;2023-05-16T12:02:53;97859.16;;;13.29;84.52
59194;BME280;44967;48.598;15.650;2023-05-16T12:05:20;97858.50;;;13.23;85.37
59194;BME280;44967;48.598;15.650;2023-05-16T12:07:50;97857.59;;;13.25;85.31
59194;BME280;44967;48.598;15.650;2023-05-16T12:10:15;97846.09;;;13.24;84.94
59194;BME280;44967;48.598;15.650;2023-05-16T12:12:43;97851.50;;;13.23;84.99
59194;BME280;44967;48.598;15.650;2023-05-16T12:15:10;97851.34;;;13.26;84.80
59194;BME280;44967;48.598;15.650;2023-05-16T12:17:40;97839.88;;;13.25;84.53
59194;BME280;44967;48.598;15.650;2023-05-16T12:20:07;97845.19;;;13.25;84.49
59194;BME280;44967;48.598;15.650;2023-05-16T12:22:43;97849.63;;;13.25;85.69
59194;BME280;44967;48.598;15.650;2023-05-16T12:27:52;97840.28;;;13.35;85.28
59194;BME280;44967;48.598;15.650;2023-05-16T12:30:18;97833.59;;;13.45;85.22
59194;BME280;44967;48.598;15.650;2023-05-16T12:32:44;97830.94;;;13.45;85.11
59194;BME280;44967;48.598;15.650;2023-05-16T12:35:10;97833.09;;;13.37;84.89
59194;BME280;44967;48.598;15.650;2023-05-16T12:37:37;97826.56;;;13.44;85.17
59194;BME280;44967;48.598;15.650;2023-05-16T12:40:03;97823.28;;;13.39;83.95
59194;BME280;44967;48.598;15.650;2023-05-16T12:42:30;97818.59;;;13.44;84.42
59194;BME280;44967;48.598;15.650;2023-05-16T12:44:56;97817.97;;;13.56;84.15
59194;BME280;44967;48.598;15.650;2023-05-16T12:47:22;97830.00;;;13.63;84.26
59194;BME280;44967;48.598;15.650;2023-05-16T12:49:48;97817.38;;;13.51;84.77
59194;BME280;44967;48.598;15.650;2023-05-16T12:52:19;97802.44;;;13.48;84.84
59194;BME280;44967;48.598;15.650;2023-05-16T12:54:46;97796.84;;;13.54;84.84
59194;BME280;44967;48.598;15.650;2023-05-16T12:57:13;97800.25;;;13.56;84.46
59194;BME280;44967;48.598;15.650;2023-05-16T12:59:38;97807.47;;;13.54;83.24
59194;BME280;44967;48.598;15.650;2023-05-16T13:02:04;97796.03;;;13.52;84.19
59194;BME280;44967;48.598;15.650;2023-05-16T13:04:30;97792.72;;;13.66;84.32
59194;BME280;44967;48.598;15.650;2023-05-16T13:06:56;97810.03;;;13.73;84.20
59194;BME280;44967;48.598;15.650;2023-05-16T13:09:22;97793.41;;;13.69;83.36
59194;BME280;44967;48.598;15.650;2023-05-16T13:11:48;97789.59;;;13.58;83.79